• Join FlightAware (Why Join?)
  • Login
  • US Flag 
01:48PM EDT


 

Airport Tracker/Info


-or-


 

Live Flight TrackerFlight Track Log ✈ SWA3206 ✈ 08-May-2013 ✈ KPHL - KMDW

Flight Track Log - Related Links

Times and Time Zones

All times are in EDT time to prevent confusion due to time zone crossing. See the SWA3206 flight status page for this flight to view local times or setup timezone preferences in your user account.

Time Position Orientation Groundspeed Altitude Reporting Facility
EDT Latitude Longitude Course Direction KTS MPH feet Rate Location/Type
11:37AM 39.8833 -75.2167 90° East 169 194 1,200  Level Philadelphia TRACON
11:37AM 39.8833 -75.2000 90° East 168 193 1,800 2,820 Climbing Philadelphia TRACON
11:38AM 39.9167 -75.1333 57° Northeast 239 275 4,900 3,120 Climbing Philadelphia TRACON
11:39AM 39.9833 -75.1333 360° North 259 298 8,100 2,520 Climbing Philadelphia TRACON
11:40AM 40.0333 -75.2333 303° West 318 366 10,000 900 Climbing Philadelphia TRACON
11:41AM 40.0833 -75.3333 303° West 357 411 10,000 240 Level Philadelphia TRACON
11:42AM 40.1500 -75.4333 311° West 352 405 10,500 1,560 Climbing Philadelphia TRACON
11:43AM 40.2050 -75.5325 306° West 388 447 13,300 2,760 Climbing New York Center
11:44AM 40.2867 -75.6250 319° Northwest 388 447 16,200 1,860 Climbing New York Center
11:45AM 40.3747 -75.7103 324° Northwest 388 447 17,100 1,680 Climbing New York Center
11:46AM 40.4606 -75.8039 320° Northwest 393 452 19,600 2,340 Climbing New York Center
11:47AM 40.5522 -75.9033 321° Northwest 411 473 21,800 2,160 Climbing New York Center
11:48AM 40.5978 -76.0489 292° West 416 479 24,000 1,080 Climbing New York Center
11:49AM 40.6197 -76.2064 280° West 425 489 24,000 900 Level New York Center
11:50AM 40.6394 -76.3639 279° West 431 496 25,900 1,860 Climbing New York Center
11:51AM 40.6631 -76.5272 281° West 442 509 27,800 1,620 Climbing New York Center
11:52AM 40.6839 -76.6933 279° West 457 526 29,200 1,080 Climbing New York Center
11:53AM 40.7083 -76.8706 280° West 472 543 30,000 1,080 Climbing New York Center
11:54AM 40.7303 -77.0481 279° West 492 566 31,400 1,380 Climbing New York Center
11:56AM 40.7756 -77.4050 280° West 487 560 34,300 1,500 Climbing Cleveland Center
11:57AM 40.7992 -77.5850 280° West 498 573 36,000 840 Climbing Cleveland Center
11:58AM 40.8200 -77.7489 280° West 486 559 36,000  Level Cleveland Center
11:59AM 40.8386 -77.9125 279° West 468 539 36,000  Level Cleveland Center
12:00PM 40.8569 -78.0794 278° West 463 533 36,000  Level Cleveland Center
12:01PM 40.8839 -78.2650 281° West 463 533 36,000 420 Level Cleveland Center
12:02PM 40.9017 -78.4322 278° West 463 533 36,900 480 Climbing Cleveland Center
12:03PM 40.9214 -78.5936 279° West 463 533 37,000  Climbing Cleveland Center
12:04PM 40.9406 -78.7581 279° West 463 533 37,000  Level Cleveland Center
12:05PM 40.9597 -78.9225 279° West 463 533 37,000  Level Cleveland Center
12:06PM 40.9747 -79.0869 277° West 463 533 37,000  Level Cleveland Center
12:07PM 40.9956 -79.2544 279° West 463 533 37,000  Level Cleveland Center
12:08PM 41.0119 -79.4164 278° West 463 533 37,000 240 Level Cleveland Center
12:09PM 41.0300 -79.5811 278° West 463 533 37,500 480 Climbing Cleveland Center
12:10PM 41.0461 -79.7489 277° West 463 533 38,000 240 Climbing Cleveland Center
12:11PM 41.0658 -79.9167 279° West 463 533 38,000  Level Cleveland Center
12:12PM 41.0814 -80.0817 277° West 463 533 38,000  Level Cleveland Center
12:13PM 41.0986 -80.2497 278° West 463 533 38,000  Level Cleveland Center
12:14PM 41.1136 -80.4150 277° West 463 533 38,000  Level Cleveland Center
12:15PM 41.1303 -80.5775 278° West 463 533 38,000  Level Cleveland Center
12:16PM 41.1447 -80.7431 277° West 458 527 38,000  Level Cleveland Center
12:17PM 41.1611 -80.9114 277° West 458 527 38,000  Level Cleveland Center
12:18PM 41.1731 -81.0575 276° West 458 527 38,000  Level Cleveland Center
12:19PM 41.1889 -81.2233 277° West 458 527 38,000  Level Cleveland Center
12:20PM 41.2047 -81.3861 277° West 458 527 38,000  Level Cleveland Center
12:21PM 41.2200 -81.5575 277° West 451 519 38,000  Level Cleveland Center
12:22PM 41.2353 -81.7125 278° West 440 506 38,000  Level Cleveland Center
12:23PM 41.2481 -81.8700 276° West 435 501 38,000  Level Cleveland Center
12:24PM 41.2569 -81.9944 275° West 430 495 38,000  Level Cleveland Center
12:25PM 41.2711 -82.1856 276° West 430 495 38,000  Level Cleveland Center
12:26PM 41.2839 -82.3267 277° West 430 495 38,000  Level Cleveland Center
12:27PM 41.2958 -82.4847 276° West 425 489 38,000  Level Cleveland Center
12:28PM 41.3078 -82.6369 276° West 425 489 38,000  Level Cleveland Center
12:29PM 41.3217 -82.7922 277° West 425 489 38,000  Level Cleveland Center
12:30PM 41.3331 -82.9531 275° West 430 495 38,000  Level Cleveland Center
12:31PM 41.3439 -83.1167 275° West 442 509 38,000  Level Cleveland Center
12:32PM 41.3550 -83.2775 275° West 442 509 38,000  Level Cleveland Center
12:33PM 41.3656 -83.4414 275° West 442 509 38,000  Level Cleveland Center
12:34PM 41.3781 -83.6078 276° West 442 509 38,000  Level Cleveland Center
12:35PM 41.3903 -83.7717 276° West 442 509 38,000 -540 Level Cleveland Center
12:36PM 41.4003 -83.9328 275° West 442 509 37,000 -1,020 Descending Cleveland Center
12:37PM 41.3786 -84.0950 260° West 436 502 36,000 -1,020 Descending Cleveland Center
12:38PM 41.3631 -84.2064 259° West 437 503 35,300 -840 Descending Chicago Center
12:39PM 41.3417 -84.3686 260° West 444 511 34,600 -1,500 Descending Chicago Center
12:40PM 41.3450 -84.5247 272° West 424 488 32,200 -2,160 Descending Chicago Center
12:41PM 41.3656 -84.6775 280° West 421 484 30,200 -1,080 Descending Chicago Center
12:42PM 41.3875 -84.8617 279° West 421 484 30,000 -420 Descending Chicago Center
12:43PM 41.4078 -85.0267 279° West 445 512 29,400 -780 Descending Chicago Center
12:44PM 41.4283 -85.1928 279° West 451 519 28,400 -1,020 Descending Chicago Center
12:45PM 41.4478 -85.3567 279° West 446 513 27,300 -1,620 Descending Chicago Center
12:46PM 41.4664 -85.5183 279° West 435 501 25,100 -2,160 Descending Chicago Center
12:47PM 41.4808 -85.6717 277° West 414 476 22,900 -2,220 Descending Chicago Center
12:48PM 41.4894 -85.8217 274° West 405 466 20,600 -2,280 Descending Chicago Center
12:49PM 41.4981 -85.9661 275° West 396 456 18,200 -2,520 Descending Chicago Center
12:50PM 41.5078 -86.1325 275° West 380 437 15,400 -2,520 Descending Chicago Center
12:51PM 41.5153 -86.2681 274° West 371 427 13,100 -1,740 Descending Chicago Center
12:52PM 41.5228 -86.3975 274° West 358 412 11,900 -1,140 Descending Chicago Center
12:53PM 41.5222 -86.5247 270° West 345 397 10,800 -960 Descending Chicago Center
12:54PM 41.5203 -86.6350 269° West 300 345 10,000 -540 Descending Chicago Center
12:55PM 41.5211 -86.7617 271° West 293 337 9,700 -840 Descending Chicago Center
12:56PM 41.5178 -86.8689 268° West 292 336 8,300 -1,380 Descending Chicago Center
12:57PM 41.5189 -86.9722 271° West 283 326 6,900 -1,140 Descending Chicago Center
12:58PM 41.5178 -87.0739 269° West 278 320 6,000 -540 Descending Chicago Center
12:59PM 41.5167 -87.1667 269° West 271 312 6,000 -60 Level Chicago TRACON
01:00PM 41.5167 -87.2667 270° West 274 315 5,900 -720 Descending Chicago TRACON
01:01PM 41.5167 -87.3667 270° West 272 313 4,600 -1,380 Descending Chicago TRACON
01:02PM 41.5136 -87.3944 262° West 272 313 4,200 -480 Descending Chicago Center
01:03PM 41.5111 -87.4911 268° West 268 308 4,000 -120 Descending Chicago Center
01:04PM 41.5300 -87.5861 285° West 266 306 4,000  Level Chicago Center
01:05PM 41.5506 -87.6767 287° West 262 302 4,000 -180 Level Chicago Center
01:06PM 41.5750 -87.7806 287° West 254 292 3,700 -540 Descending Chicago Center
01:07PM 41.6114 -87.8394 310° West 229 264 2,900 -780 Descending Chicago Center
01:07PM 41.6333 -87.8667 317° Northwest 214 246 2,600 -420 Descending Chicago TRACON
01:08PM 41.6514 -87.8922 313° West 228 262 2,500 -60 Descending Chicago Center
01:09PM 41.6958 -87.8667 23° Northeast 191 220 2,500  Level Chicago Center
01:09PM 41.7167 -87.8500 31° Northeast 169 194 2,500 -720 Level Chicago TRACON
01:10PM 41.7500 -87.8000 48° Northeast 158 182 1,600 -840 Descending Chicago TRACON
01:11PM 41.7667 -87.7667 56° Northeast 134 154 900 -720 Descending Chicago TRACON